createdAt,value
2023-03-11T00:00:22.765Z,2.53
2023-03-11T00:02:51.636Z,2.60
2023-03-11T00:05:25.156Z,3.65
2023-03-11T00:07:52.450Z,2.72
2023-03-11T00:10:30.903Z,3.00
2023-03-11T00:13:01.786Z,3.00
2023-03-11T00:15:30.055Z,2.85
2023-03-11T00:17:58.205Z,3.33
2023-03-11T00:20:31.116Z,2.92
2023-03-11T00:22:58.761Z,3.55
2023-03-11T00:25:29.553Z,2.55
2023-03-11T00:27:57.058Z,2.60
2023-03-11T00:30:25.239Z,2.83
2023-03-11T00:32:55.101Z,3.25
2023-03-11T00:35:28.860Z,2.30
2023-03-11T00:37:59.345Z,2.70
2023-03-11T00:40:28.457Z,2.58
2023-03-11T00:42:55.970Z,2.67
2023-03-11T00:45:23.454Z,3.05
2023-03-11T00:47:51.861Z,2.72
2023-03-11T00:50:28.583Z,2.60
2023-03-11T00:52:56.376Z,2.75
2023-03-11T00:55:26.959Z,2.67
2023-03-11T00:58:00.238Z,5.15
2023-03-11T01:00:31.901Z,2.60
2023-03-11T01:03:00.362Z,2.28
2023-03-11T01:05:31.042Z,2.70
2023-03-11T01:07:59.061Z,3.30
2023-03-11T01:10:28.066Z,2.83
2023-03-11T01:12:55.255Z,2.95
2023-03-11T01:15:32.827Z,3.15
2023-03-11T01:18:00.361Z,2.63
2023-03-11T01:20:28.022Z,2.25
2023-03-11T01:22:55.266Z,3.10
2023-03-11T01:25:24.470Z,3.50
2023-03-11T01:27:51.906Z,3.95
2023-03-11T01:30:22.359Z,4.38
2023-03-11T01:32:52.626Z,3.10
2023-03-11T01:35:22.708Z,3.15
2023-03-11T01:37:50.163Z,2.45
2023-03-11T01:40:29.975Z,2.80
2023-03-11T01:43:00.617Z,2.65
2023-03-11T01:46:02.739Z,3.33
2023-03-11T01:48:31.420Z,2.72
2023-03-11T01:50:59.372Z,3.58
2023-03-11T01:53:26.866Z,2.47
2023-03-11T01:55:54.821Z,2.95
2023-03-11T01:58:26.833Z,2.40
2023-03-11T02:00:56.912Z,2.45
2023-03-11T02:03:30.066Z,2.50
2023-03-11T02:06:01.429Z,3.13
2023-03-11T02:08:30.190Z,3.00
2023-03-11T02:10:58.073Z,3.10
2023-03-11T02:13:25.345Z,2.92
2023-03-11T02:15:52.768Z,3.60
2023-03-11T02:18:21.296Z,3.40
2023-03-11T02:21:10.328Z,2.72
2023-03-11T02:24:03.233Z,2.35
2023-03-11T02:26:56.726Z,2.38
2023-03-11T02:29:26.925Z,2.78
2023-03-11T02:31:56.209Z,3.40
2023-03-11T02:34:28.181Z,3.17
2023-03-11T02:36:55.548Z,4.22
2023-03-11T02:39:33.964Z,2.08
2023-03-11T02:42:12.454Z,2.92
2023-03-11T02:44:44.353Z,2.72
2023-03-11T02:47:11.973Z,3.33
2023-03-11T02:49:39.622Z,2.70
2023-03-11T02:52:07.054Z,2.40
2023-03-11T02:54:34.172Z,2.88
2023-03-11T02:57:01.236Z,3.63
2023-03-11T02:59:28.415Z,2.80
2023-03-11T03:01:56.411Z,2.80
2023-03-11T03:04:23.548Z,3.20
2023-03-11T03:06:50.714Z,2.78
2023-03-11T03:09:18.114Z,3.17
2023-03-11T03:11:45.271Z,3.17
2023-03-11T03:14:12.402Z,3.33
2023-03-11T03:16:39.682Z,3.22
2023-03-11T03:19:06.797Z,2.70
2023-03-11T03:21:33.915Z,3.60
2023-03-11T03:24:01.489Z,2.80
2023-03-11T03:26:28.621Z,2.83
2023-03-11T03:28:56.664Z,3.22
2023-03-11T03:31:23.907Z,2.55
2023-03-11T03:33:51.340Z,3.42
2023-03-11T03:36:18.565Z,2.80
2023-03-11T03:38:59.013Z,3.28
2023-03-11T03:41:30.820Z,3.42
2023-03-11T03:43:58.507Z,2.75
2023-03-11T03:46:26.279Z,3.58
2023-03-11T03:48:57.378Z,3.13
2023-03-11T03:51:25.157Z,3.35
2023-03-11T03:54:04.827Z,2.70
2023-03-11T03:56:32.034Z,3.10
2023-03-11T03:59:00.291Z,3.30
2023-03-11T04:01:33.535Z,2.88
2023-03-11T04:04:00.913Z,3.13
2023-03-11T04:06:28.494Z,3.50
2023-03-11T04:09:00.669Z,3.03
2023-03-11T04:11:32.591Z,2.85
2023-03-11T04:14:02.593Z,3.10
2023-03-11T04:16:31.846Z,3.40
2023-03-11T04:19:05.931Z,4.28
2023-03-11T04:21:34.626Z,4.03
2023-03-11T04:24:02.252Z,4.00
2023-03-11T04:26:33.774Z,3.55
2023-03-11T04:29:01.734Z,3.00
2023-03-11T04:31:32.030Z,3.72
2023-03-11T04:34:01.803Z,3.95
2023-03-11T04:36:29.552Z,3.70
2023-03-11T04:38:57.601Z,3.55
2023-03-11T04:41:26.180Z,3.38
2023-03-11T04:43:53.898Z,3.08
2023-03-11T04:46:21.119Z,3.67
2023-03-11T04:48:49.001Z,3.97
2023-03-11T04:51:16.546Z,3.88
2023-03-11T04:53:43.843Z,4.18
2023-03-11T04:56:12.374Z,4.80
2023-03-11T04:58:40.188Z,3.35
2023-03-11T05:01:07.819Z,3.25
2023-03-11T05:03:35.257Z,3.67
2023-03-11T05:06:02.526Z,4.13
2023-03-11T05:08:30.407Z,3.42
2023-03-11T05:10:58.031Z,3.63
2023-03-11T05:13:25.326Z,4.35
2023-03-11T05:15:53.354Z,3.10
2023-03-11T05:18:21.084Z,2.88
2023-03-11T05:20:49.264Z,3.28
2023-03-11T05:23:17.923Z,3.63
2023-03-11T05:25:45.788Z,3.13
2023-03-11T05:28:13.118Z,2.85
2023-03-11T05:30:46.338Z,2.75
2023-03-11T05:33:13.803Z,2.72
2023-03-11T05:35:41.056Z,2.85
2023-03-11T05:38:08.218Z,2.53
2023-03-11T05:40:35.657Z,2.28
2023-03-11T05:43:02.901Z,3.08
2023-03-11T05:45:33.845Z,2.95
2023-03-11T05:48:02.299Z,2.92
2023-03-11T05:50:30.326Z,2.85
2023-03-11T05:52:57.812Z,3.15
2023-03-11T05:55:29.373Z,3.28
2023-03-11T05:57:56.561Z,3.78
2023-03-11T06:00:23.994Z,3.42
2023-03-11T06:02:53.214Z,2.35
2023-03-11T06:05:20.531Z,2.92
2023-03-11T06:07:49.709Z,3.25
2023-03-11T06:10:17.501Z,3.15
2023-03-11T06:12:45.848Z,2.50
2023-03-11T06:15:24.181Z,3.13
2023-03-11T06:17:52.697Z,5.00
2023-03-11T06:20:20.005Z,3.42
2023-03-11T06:22:50.532Z,3.85
2023-03-11T06:25:18.615Z,3.20
2023-03-11T06:27:52.520Z,3.85
2023-03-11T06:30:21.418Z,3.97
2023-03-11T06:32:56.318Z,4.85
2023-03-11T06:35:23.620Z,4.18
2023-03-11T06:37:50.712Z,3.80
2023-03-11T06:40:18.812Z,3.40
2023-03-11T06:42:49.095Z,3.55
2023-03-11T06:45:20.482Z,3.58
2023-03-11T06:47:48.960Z,4.78
2023-03-11T06:50:16.713Z,3.38
2023-03-11T06:52:43.871Z,3.35
2023-03-11T06:55:11.264Z,4.20
2023-03-11T06:57:38.344Z,3.58
2023-03-11T07:00:12.607Z,4.22
2023-03-11T07:02:42.782Z,3.65
2023-03-11T07:05:10.756Z,3.63
2023-03-11T07:07:37.889Z,4.00
2023-03-11T07:10:05.880Z,3.47
2023-03-11T07:12:33.014Z,3.22
2023-03-11T07:15:00.606Z,3.30
2023-03-11T07:17:29.518Z,3.28
2023-03-11T07:19:56.806Z,4.85
2023-03-11T07:22:23.998Z,4.72
2023-03-11T07:24:51.134Z,3.00
2023-03-11T07:27:18.334Z,3.25
2023-03-11T07:29:45.518Z,2.83
2023-03-11T07:32:12.722Z,3.20
2023-03-11T07:34:39.803Z,3.25
2023-03-11T07:37:06.934Z,2.75
2023-03-11T07:39:34.061Z,2.50
2023-03-11T07:42:01.121Z,2.80
2023-03-11T07:44:35.053Z,3.20
2023-03-11T07:47:04.069Z,3.47
2023-03-11T07:49:31.570Z,3.08
2023-03-11T07:51:58.688Z,3.17
2023-03-11T07:54:25.795Z,3.10
2023-03-11T07:56:52.902Z,3.13
2023-03-11T07:59:20.020Z,2.67
2023-03-11T08:01:47.546Z,2.63
2023-03-11T08:04:17.218Z,2.47
2023-03-11T08:06:46.769Z,2.85
2023-03-11T08:09:14.176Z,2.35
2023-03-11T08:11:41.788Z,2.42
2023-03-11T08:14:09.090Z,2.97
2023-03-11T08:16:36.229Z,2.72
2023-03-11T08:19:03.701Z,3.83
2023-03-11T08:21:32.461Z,2.63
2023-03-11T08:24:02.060Z,2.35
2023-03-11T08:26:29.349Z,2.35
2023-03-11T08:28:57.998Z,2.67
2023-03-11T08:31:28.821Z,3.13
2023-03-11T08:34:01.998Z,2.92
2023-03-11T08:36:29.846Z,2.22
2023-03-11T08:38:57.235Z,2.83
2023-03-11T08:41:24.494Z,2.30
2023-03-11T08:43:52.425Z,2.42
2023-03-11T08:46:31.276Z,3.67
2023-03-11T08:49:01.197Z,2.78
2023-03-11T08:51:30.101Z,2.85
2023-03-11T08:53:57.190Z,3.08
2023-03-11T08:56:24.558Z,2.10
2023-03-11T08:58:52.394Z,2.30
2023-03-11T09:01:20.492Z,3.17
2023-03-11T09:03:47.966Z,5.30
2023-03-11T09:06:16.805Z,2.58
2023-03-11T09:08:45.490Z,3.38
2023-03-11T09:11:13.765Z,1.27
2023-03-11T09:13:42.439Z,0.60
2023-03-11T09:16:13.675Z,0.90
2023-03-11T09:18:40.807Z,1.63
2023-03-11T09:21:08.585Z,2.13
2023-03-11T09:23:35.703Z,1.00
2023-03-11T09:26:02.801Z,1.63
2023-03-11T09:28:29.832Z,0.85
2023-03-11T09:31:00.208Z,1.00
2023-03-11T09:33:27.699Z,0.88
2023-03-11T09:35:54.898Z,1.00
2023-03-11T09:38:22.119Z,1.02
2023-03-11T09:41:02.763Z,1.15
2023-03-11T09:43:52.154Z,1.20
2023-03-11T09:46:34.958Z,0.98
2023-03-11T09:49:17.041Z,1.30
2023-03-11T09:51:48.989Z,1.38
2023-03-11T09:54:16.291Z,1.20
2023-03-11T09:56:44.614Z,1.27
2023-03-11T09:59:24.211Z,1.20
2023-03-11T10:01:51.941Z,1.20
2023-03-11T10:04:40.109Z,1.33
2023-03-11T10:07:14.758Z,1.10
2023-03-11T10:09:57.116Z,1.00
2023-03-11T10:12:38.467Z,1.80
2023-03-11T10:15:23.986Z,1.50
2023-03-11T10:18:09.476Z,1.60
2023-03-11T10:23:12.131Z,1.08
2023-03-11T10:25:57.141Z,1.15
2023-03-11T10:28:37.368Z,1.30
2023-03-11T10:31:23.186Z,1.63
2023-03-11T10:34:17.099Z,1.60
2023-03-11T10:37:04.077Z,1.40
2023-03-11T10:39:33.685Z,1.80
2023-03-11T10:42:02.971Z,1.83
2023-03-11T10:44:32.509Z,1.75
2023-03-11T10:47:00.117Z,1.20
2023-03-11T10:49:27.455Z,1.20
2023-03-11T10:51:56.055Z,1.05
2023-03-11T10:54:30.892Z,1.20
2023-03-11T10:57:03.744Z,1.35
2023-03-11T10:59:32.075Z,1.00
2023-03-11T11:02:18.610Z,0.82
2023-03-11T11:04:46.083Z,0.88
2023-03-11T11:07:32.517Z,0.80
2023-03-11T11:10:28.949Z,0.60
2023-03-11T11:13:00.912Z,0.90
2023-03-11T11:15:37.322Z,0.57
2023-03-11T11:18:18.351Z,0.47
2023-03-11T11:21:02.598Z,0.80
2023-03-11T11:23:39.735Z,0.35
2023-03-11T11:26:16.251Z,0.52
2023-03-11T11:28:43.540Z,0.50
2023-03-11T11:31:25.545Z,0.52
2023-03-11T11:33:54.990Z,0.38
2023-03-11T11:36:32.276Z,0.60
2023-03-11T11:39:05.109Z,0.50
2023-03-11T11:41:35.642Z,0.50
2023-03-11T11:44:07.312Z,0.47
2023-03-11T11:46:51.511Z,0.77
2023-03-11T11:49:31.943Z,0.60
2023-03-11T11:52:16.632Z,0.40
2023-03-11T11:54:49.336Z,0.93
2023-03-11T11:57:18.996Z,0.40
2023-03-11T11:59:46.841Z,0.70
2023-03-11T12:02:18.354Z,0.47
2023-03-11T12:05:06.356Z,0.55
2023-03-11T12:07:39.920Z,0.60
2023-03-11T12:10:33.987Z,0.50
2023-03-11T12:13:16.227Z,0.65
2023-03-11T12:15:52.517Z,0.60
2023-03-11T12:18:25.858Z,0.75
2023-03-11T12:20:57.091Z,0.65
2023-03-11T12:23:55.035Z,0.75
2023-03-11T12:26:28.529Z,0.73
2023-03-11T12:29:08.072Z,0.80
2023-03-11T12:31:39.583Z,0.68
2023-03-11T12:34:12.295Z,0.75
2023-03-11T12:36:44.964Z,0.52
2023-03-11T12:39:28.897Z,1.08
2023-03-11T12:42:11.188Z,4.30
2023-03-11T12:44:40.136Z,6.25
2023-03-11T12:47:13.309Z,6.43
2023-03-11T12:49:40.813Z,6.63
2023-03-11T12:52:13.969Z,6.43
2023-03-11T12:55:07.444Z,5.60
2023-03-11T12:57:44.689Z,2.80
2023-03-11T13:00:30.693Z,2.40
2023-03-11T13:03:38.978Z,2.70
2023-03-11T13:06:19.574Z,2.05
2023-03-11T13:08:52.357Z,2.00
2023-03-11T13:11:34.518Z,1.70
2023-03-11T13:14:34.733Z,1.55
2023-03-11T13:17:25.843Z,1.40
2023-03-11T13:19:57.747Z,1.40
2023-03-11T13:22:42.633Z,2.20
2023-03-11T13:25:35.348Z,1.60
2023-03-11T13:28:20.358Z,1.25
2023-03-11T13:31:06.356Z,1.00
2023-03-11T13:33:52.785Z,1.23
2023-03-11T13:36:49.137Z,1.02
2023-03-11T13:39:43.303Z,0.80
2023-03-11T13:42:54.513Z,0.63
2023-03-11T13:45:35.958Z,0.90
2023-03-11T13:48:31.174Z,1.10
2023-03-11T13:51:07.867Z,1.50
2023-03-11T13:53:42.564Z,1.08
2023-03-11T13:56:27.404Z,1.33
2023-03-11T13:58:54.963Z,1.50
2023-03-11T14:01:22.085Z,1.25
2023-03-11T14:03:49.287Z,1.30
2023-03-11T14:06:20.061Z,1.58
2023-03-11T14:08:55.379Z,1.92
2023-03-11T14:11:29.247Z,1.70
2023-03-11T14:13:56.624Z,1.85
2023-03-11T14:16:34.122Z,1.90
2023-03-11T14:19:04.582Z,1.50
2023-03-11T14:21:34.250Z,1.42
2023-03-11T14:24:03.876Z,1.48
2023-03-11T14:26:35.180Z,1.95
2023-03-11T14:29:09.000Z,1.80
2023-03-11T14:31:38.683Z,2.05
2023-03-11T14:34:11.395Z,1.63
2023-03-11T14:36:48.664Z,1.77
2023-03-11T14:39:33.342Z,1.70
2023-03-11T14:42:13.801Z,1.75
2023-03-11T14:44:43.699Z,1.70
2023-03-11T14:47:16.435Z,2.13
2023-03-11T14:49:45.159Z,1.88
2023-03-11T14:52:19.793Z,2.08
2023-03-11T14:54:49.877Z,1.95
2023-03-11T14:57:24.729Z,2.08
2023-03-11T14:59:53.607Z,2.60
2023-03-11T15:02:39.068Z,3.53
2023-03-11T15:05:18.478Z,2.95
2023-03-11T15:07:46.783Z,3.22
2023-03-11T15:10:14.312Z,3.58
2023-03-11T15:12:43.830Z,3.67
2023-03-11T15:15:24.512Z,3.92
2023-03-11T15:17:57.659Z,4.28
2023-03-11T15:20:37.135Z,5.15
2023-03-11T15:23:06.548Z,5.15
2023-03-11T15:25:37.478Z,4.60
2023-03-11T15:28:25.359Z,4.95
2023-03-11T15:31:31.269Z,4.05
2023-03-11T15:34:19.436Z,2.92
2023-03-11T15:36:49.455Z,3.17
2023-03-11T15:39:33.135Z,2.58
2023-03-11T15:42:02.264Z,3.42
2023-03-11T15:44:36.488Z,3.65
2023-03-11T15:47:04.516Z,5.15
2023-03-11T15:49:31.968Z,5.32
2023-03-11T15:52:02.589Z,5.28
2023-03-11T15:54:29.971Z,4.43
2023-03-11T15:57:01.187Z,4.60
2023-03-11T15:59:30.157Z,4.78
2023-03-11T16:01:58.432Z,3.97
2023-03-11T16:04:25.822Z,4.32
2023-03-11T16:07:06.971Z,4.35
2023-03-11T16:09:35.349Z,4.68
2023-03-11T16:12:02.967Z,4.28
2023-03-11T16:14:30.037Z,4.07
2023-03-11T16:16:57.044Z,3.75
2023-03-11T16:19:24.064Z,4.28
2023-03-11T16:21:51.216Z,4.03
2023-03-11T16:24:24.228Z,4.25
2023-03-11T16:26:52.861Z,4.80
2023-03-11T16:29:20.763Z,3.90
2023-03-11T16:31:49.307Z,3.42
2023-03-11T16:34:16.313Z,4.20
2023-03-11T16:36:43.387Z,4.30
2023-03-11T16:39:10.465Z,3.70
2023-03-11T16:41:44.895Z,3.15
2023-03-11T16:44:12.222Z,3.10
2023-03-11T16:46:39.691Z,3.15
2023-03-11T16:49:06.921Z,2.95
2023-03-11T16:51:34.253Z,2.65
2023-03-11T16:54:01.528Z,2.38
2023-03-11T16:56:28.581Z,2.40
2023-03-11T16:58:55.685Z,2.72
2023-03-11T17:01:23.073Z,2.58
2023-03-11T17:03:50.927Z,2.53
2023-03-11T17:06:19.269Z,2.55
2023-03-11T17:08:49.355Z,2.40
2023-03-11T17:11:18.826Z,2.92
2023-03-11T17:13:46.267Z,3.03
2023-03-11T17:16:13.547Z,3.25
2023-03-11T17:18:40.840Z,4.57
2023-03-11T17:21:10.294Z,4.90
2023-03-11T17:23:37.457Z,6.45
2023-03-11T17:26:12.740Z,3.80
2023-03-11T17:31:16.036Z,2.78
2023-03-11T17:33:43.618Z,2.88
2023-03-11T17:36:14.626Z,2.67
2023-03-11T17:38:43.025Z,3.03
2023-03-11T17:41:12.746Z,3.40
2023-03-11T17:43:40.881Z,3.53
2023-03-11T17:46:09.051Z,3.42
2023-03-11T17:48:36.205Z,3.30
2023-03-11T17:51:11.669Z,3.05
2023-03-11T17:53:40.776Z,3.95
2023-03-11T17:56:09.088Z,2.92
2023-03-11T17:58:36.304Z,3.33
2023-03-11T18:01:08.951Z,2.88
2023-03-11T18:03:36.031Z,2.53
2023-03-11T18:06:05.680Z,2.30
2023-03-11T18:08:33.979Z,2.58
2023-03-11T18:11:03.556Z,2.78
2023-03-11T18:13:31.632Z,2.65
2023-03-11T18:16:01.268Z,2.33
2023-03-11T18:18:29.859Z,2.30
2023-03-11T18:21:02.350Z,2.78
2023-03-11T18:23:33.053Z,2.78
2023-03-11T18:26:04.837Z,2.40
2023-03-11T18:28:32.117Z,2.05
2023-03-11T18:31:13.608Z,2.55
2023-03-11T18:33:42.029Z,2.13
2023-03-11T18:36:18.713Z,2.00
2023-03-11T18:38:46.261Z,1.92
2023-03-11T18:41:13.837Z,2.30
2023-03-11T18:43:41.180Z,1.30
2023-03-11T18:46:10.765Z,1.80
2023-03-11T18:48:38.439Z,1.83
2023-03-11T18:51:07.304Z,2.13
2023-03-11T18:53:34.808Z,2.00
2023-03-11T18:56:04.849Z,1.80
2023-03-11T18:58:32.013Z,2.22
2023-03-11T19:01:10.108Z,2.20
2023-03-11T19:03:38.377Z,2.25
2023-03-11T19:06:06.920Z,1.67
2023-03-11T19:08:34.058Z,1.70
2023-03-11T19:11:01.176Z,1.90
2023-03-11T19:13:40.732Z,1.50
2023-03-11T19:16:13.855Z,1.55
2023-03-11T19:18:41.778Z,1.42
2023-03-11T19:21:12.108Z,1.58
2023-03-11T19:23:39.628Z,1.58
2023-03-11T19:26:07.440Z,1.33
2023-03-11T19:28:35.211Z,1.02
2023-03-11T19:31:02.394Z,1.20
2023-03-11T19:33:29.969Z,1.10
2023-03-11T19:36:02.700Z,1.20
2023-03-11T19:38:30.167Z,1.30
2023-03-11T19:41:04.875Z,1.33
2023-03-11T19:43:32.534Z,0.90
2023-03-11T19:46:00.206Z,1.20
2023-03-11T19:48:27.709Z,0.93
2023-03-11T19:50:54.823Z,2.65
2023-03-11T19:53:23.024Z,1.58
2023-03-11T19:55:52.531Z,1.27
2023-03-11T19:58:20.398Z,1.20
2023-03-11T20:00:47.872Z,1.65
2023-03-11T20:03:16.139Z,1.67
2023-03-11T20:05:46.096Z,0.80
2023-03-11T20:08:17.881Z,0.80
2023-03-11T20:10:47.779Z,0.82
2023-03-11T20:13:17.098Z,1.90
2023-03-11T20:15:44.426Z,0.60
2023-03-11T20:18:11.656Z,0.55
2023-03-11T20:20:39.961Z,1.63
2023-03-11T20:23:07.180Z,0.82
2023-03-11T20:25:35.090Z,0.50
2023-03-11T20:28:02.280Z,1.00
2023-03-11T20:30:29.735Z,0.60
2023-03-11T20:32:56.990Z,0.50
2023-03-11T20:35:24.569Z,0.85
2023-03-11T20:37:51.682Z,0.80
2023-03-11T20:40:19.441Z,0.60
2023-03-11T20:42:49.129Z,0.43
2023-03-11T20:45:21.943Z,0.68
2023-03-11T20:47:50.783Z,0.60
2023-03-11T20:50:18.066Z,0.75
2023-03-11T20:52:45.194Z,0.80
2023-03-11T20:55:12.749Z,0.70
2023-03-11T20:57:40.094Z,0.70
2023-03-11T21:00:11.524Z,0.50
2023-03-11T21:02:40.629Z,0.80
2023-03-11T21:05:09.516Z,0.93
2023-03-11T21:07:36.735Z,0.80
2023-03-11T21:10:06.259Z,0.70
2023-03-11T21:12:33.448Z,1.30
2023-03-11T21:15:00.723Z,0.77
2023-03-11T21:17:27.900Z,0.75
2023-03-11T21:19:55.102Z,0.70
2023-03-11T21:22:22.173Z,0.70
2023-03-11T21:24:53.717Z,1.00
2023-03-11T21:27:26.504Z,0.90
2023-03-11T21:29:57.629Z,0.82
2023-03-11T21:32:26.649Z,0.60
2023-03-11T21:34:58.218Z,0.85
2023-03-11T21:37:26.645Z,0.80
2023-03-11T21:39:54.243Z,0.90
2023-03-11T21:42:21.982Z,0.70
2023-03-11T21:44:49.377Z,0.70
2023-03-11T21:47:16.608Z,0.55
2023-03-11T21:49:43.750Z,1.13
2023-03-11T21:52:10.938Z,0.70
2023-03-11T21:54:38.029Z,0.88
2023-03-11T21:57:05.330Z,0.80
2023-03-11T21:59:32.623Z,0.60
2023-03-11T22:02:03.302Z,1.27
2023-03-11T22:04:31.958Z,1.08
2023-03-11T22:06:59.395Z,1.05
2023-03-11T22:09:26.721Z,0.73
2023-03-11T22:11:56.345Z,0.70
2023-03-11T22:14:24.232Z,0.73
2023-03-11T22:16:51.967Z,1.10
2023-03-11T22:19:19.545Z,0.93
2023-03-11T22:21:48.543Z,1.40
2023-03-11T22:24:16.131Z,1.23
2023-03-11T22:26:43.176Z,1.88
2023-03-11T22:29:13.047Z,10.80
2023-03-11T22:31:40.676Z,32.13
2023-03-11T22:34:07.811Z,33.40
2023-03-11T22:36:34.852Z,27.30
2023-03-11T22:39:04.475Z,10.73
2023-03-11T22:41:32.493Z,33.22
2023-03-11T22:43:59.719Z,7.20
2023-03-11T22:46:26.985Z,3.53
2023-03-11T22:48:54.268Z,13.45
2023-03-11T22:51:21.572Z,11.05
2023-03-11T22:53:49.034Z,2.30
2023-03-11T22:56:17.727Z,6.80
2023-03-11T22:58:45.204Z,3.30
2023-03-11T23:01:13.338Z,3.25
2023-03-11T23:03:40.562Z,2.75
2023-03-11T23:06:09.666Z,6.63
2023-03-11T23:08:37.476Z,2.33
2023-03-11T23:11:07.285Z,2.55
2023-03-11T23:13:37.749Z,7.65
2023-03-11T23:16:14.478Z,8.13
2023-03-11T23:18:42.640Z,3.85
2023-03-11T23:21:26.496Z,3.03
2023-03-11T23:23:54.708Z,9.05
2023-03-11T23:26:22.633Z,11.60
2023-03-11T23:28:53.922Z,6.35
2023-03-11T23:31:23.724Z,2.30
2023-03-11T23:33:51.626Z,4.05
2023-03-11T23:36:21.209Z,1.40
2023-03-11T23:38:50.999Z,2.83
2023-03-11T23:41:20.368Z,4.80
2023-03-11T23:43:47.851Z,7.78
2023-03-11T23:46:15.762Z,8.65
2023-03-11T23:48:42.938Z,3.80
2023-03-11T23:51:10.127Z,3.38
2023-03-11T23:53:38.365Z,8.30
2023-03-11T23:56:13.817Z,1.95
